createdAt,value
2018-04-30T03:16:22.555Z,970.68
2018-04-30T03:20:17.400Z,970.68
2018-04-30T03:21:17.212Z,970.66
2018-04-30T03:22:17.206Z,970.79
2018-04-30T03:23:27.084Z,970.75
2018-04-30T03:27:39.006Z,970.72
2018-04-30T03:28:39.421Z,970.78
2018-04-30T03:29:39.205Z,970.73
2018-04-30T03:33:19.948Z,970.72
2018-04-30T03:36:41.287Z,970.72
2018-04-30T03:48:26.874Z,971.00
2018-04-30T03:49:27.478Z,971.02
2018-04-30T03:50:34.743Z,970.98
2018-04-30T03:54:07.687Z,971.01
2018-04-30T03:55:21.264Z,971.01
2018-04-30T03:57:42.412Z,971.07
2018-04-30T04:09:55.576Z,971.10
2018-04-30T04:13:48.473Z,971.05
2018-04-30T04:14:43.200Z,971.02
2018-04-30T04:15:43.981Z,970.95
2018-04-30T04:18:44.214Z,971.16
2018-04-30T04:19:44.852Z,971.17
2018-04-30T04:20:46.024Z,971.25
2018-04-30T04:21:42.724Z,971.27
2018-04-30T04:22:42.970Z,971.21
2018-04-30T04:23:43.071Z,971.29
2018-04-30T04:24:43.230Z,971.31
2018-04-30T04:25:43.409Z,971.35
2018-04-30T04:26:43.610Z,971.35
2018-04-30T04:27:43.820Z,971.37
2018-04-30T04:28:43.915Z,971.36
2018-04-30T04:29:44.081Z,971.42
2018-04-30T04:30:44.254Z,971.47
2018-04-30T04:31:44.375Z,971.44
2018-04-30T04:32:44.529Z,971.44
2018-04-30T04:33:44.715Z,971.52
2018-04-30T04:34:44.790Z,971.58
2018-04-30T04:35:45.088Z,971.56
2018-04-30T04:36:45.197Z,971.58
2018-04-30T04:37:45.373Z,971.56
2018-04-30T04:38:45.587Z,971.65
2018-04-30T04:39:45.730Z,971.52
2018-04-30T04:40:45.786Z,971.50
2018-04-30T04:41:46.113Z,971.55
2018-04-30T04:42:46.157Z,971.55
2018-04-30T04:43:46.345Z,971.64
2018-04-30T04:44:46.526Z,971.58
2018-04-30T04:45:46.682Z,971.64
2018-04-30T04:46:46.818Z,971.64
2018-04-30T04:47:46.998Z,971.61
2018-04-30T04:48:47.943Z,971.66
2018-04-30T04:49:47.209Z,971.66
2018-04-30T04:50:47.465Z,971.73
2018-04-30T04:51:47.582Z,971.68
2018-04-30T04:52:48.180Z,971.84
2018-04-30T04:53:47.960Z,971.70
2018-04-30T04:54:48.211Z,971.80
2018-04-30T04:55:48.309Z,971.66
2018-04-30T04:56:48.596Z,971.74
2018-04-30T04:57:48.951Z,971.81
2018-04-30T04:58:48.890Z,971.81
2018-04-30T04:59:49.145Z,971.78
2018-04-30T05:00:49.346Z,971.76
2018-04-30T05:01:50.295Z,971.86
2018-04-30T05:05:25.237Z,972.00
2018-04-30T05:06:24.208Z,972.05
2018-04-30T05:07:24.229Z,971.98
2018-04-30T05:08:24.752Z,972.05
2018-04-30T05:09:25.052Z,971.99
2018-04-30T05:10:25.678Z,971.98
2018-04-30T05:11:23.493Z,971.98
2018-04-30T05:12:22.979Z,972.01
2018-04-30T05:13:23.068Z,971.99
2018-04-30T05:14:23.822Z,972.01
2018-04-30T05:15:23.550Z,971.99
2018-04-30T05:16:24.670Z,972.04
2018-04-30T05:17:23.746Z,972.12
2018-04-30T05:18:23.950Z,972.13
2018-04-30T05:19:24.235Z,972.17
2018-04-30T05:20:24.369Z,972.17
2018-04-30T05:21:24.466Z,972.19
2018-04-30T05:22:24.670Z,972.17
2018-04-30T05:23:25.543Z,972.29
2018-04-30T05:24:25.042Z,972.31
2018-04-30T05:25:25.950Z,972.48
2018-04-30T05:26:25.919Z,972.56
2018-04-30T05:27:38.215Z,972.51
2018-04-30T05:29:28.353Z,972.44
2018-04-30T05:30:29.389Z,972.38
2018-04-30T05:31:38.568Z,972.45
2018-04-30T05:33:30.183Z,972.48
2018-04-30T05:34:31.802Z,972.53
2018-04-30T05:35:29.665Z,972.58
2018-04-30T05:37:29.852Z,972.74
2018-04-30T05:38:29.860Z,972.77
2018-04-30T05:39:30.201Z,972.78
2018-04-30T05:40:30.619Z,972.73
2018-04-30T05:41:31.528Z,972.93
2018-04-30T05:42:31.450Z,972.84
2018-04-30T05:43:31.944Z,972.75
2018-04-30T05:44:32.200Z,972.80
2018-04-30T05:46:31.330Z,972.92
2018-04-30T05:47:30.189Z,972.85
2018-04-30T05:48:29.369Z,972.91
2018-04-30T05:49:29.429Z,973.09
2018-04-30T05:50:29.707Z,973.10
2018-04-30T05:51:29.916Z,973.00
2018-04-30T05:54:26.434Z,973.10
2018-04-30T06:01:09.332Z,973.20
2018-04-30T06:02:10.851Z,973.29
2018-04-30T06:05:12.257Z,973.29
2018-04-30T06:06:25.658Z,973.32
2018-04-30T06:11:24.760Z,973.39
2018-04-30T06:12:32.391Z,973.36
2018-04-30T06:20:55.257Z,973.32
2018-04-30T06:22:03.987Z,973.39
2018-04-30T06:22:55.011Z,973.44
2018-04-30T06:23:56.918Z,973.39
2018-04-30T06:26:37.795Z,973.41
2018-04-30T06:27:46.808Z,973.44
2018-04-30T06:30:36.330Z,973.49
2018-04-30T06:31:28.687Z,973.51
2018-04-30T06:32:36.913Z,973.60
2018-04-30T06:33:29.714Z,973.66
2018-04-30T06:34:29.312Z,973.58
2018-04-30T06:35:29.482Z,973.58
2018-04-30T06:36:28.764Z,973.53
2018-04-30T06:37:29.168Z,973.57
2018-04-30T06:38:29.239Z,973.54
2018-04-30T06:39:29.864Z,973.57
2018-04-30T06:40:30.229Z,973.55
2018-04-30T06:42:30.182Z,973.63
2018-04-30T06:43:30.823Z,973.52
2018-04-30T06:44:29.432Z,973.57
2018-04-30T06:45:28.470Z,973.63
2018-04-30T06:46:28.532Z,973.64
2018-04-30T06:47:28.689Z,973.67
2018-04-30T06:48:28.861Z,973.73
2018-04-30T06:49:29.051Z,973.86
2018-04-30T06:50:29.177Z,973.83
2018-04-30T06:51:32.481Z,973.77
2018-04-30T06:52:29.689Z,973.79
2018-04-30T06:53:29.931Z,973.77
2018-04-30T06:54:30.025Z,973.69
2018-04-30T06:55:30.282Z,973.76
2018-04-30T06:56:30.324Z,973.74
2018-04-30T06:57:30.545Z,973.95
2018-04-30T06:58:35.403Z,973.94
2018-04-30T06:59:31.193Z,973.89
2018-04-30T07:00:31.636Z,973.90
2018-04-30T07:01:47.852Z,974.13
2018-04-30T07:02:34.379Z,973.90
2018-04-30T07:03:34.527Z,973.95
2018-04-30T07:04:44.537Z,974.25
2018-04-30T07:05:35.044Z,974.04
2018-04-30T07:13:07.694Z,974.30
2018-04-30T07:16:13.206Z,974.44
2018-04-30T07:19:19.462Z,974.32
2018-04-30T07:21:36.270Z,974.58
2018-04-30T07:22:36.146Z,974.59
2018-04-30T07:25:14.347Z,974.57
2018-04-30T07:26:19.182Z,974.62
2018-04-30T07:28:12.787Z,974.60
2018-04-30T07:29:11.772Z,974.43
2018-04-30T07:30:10.010Z,974.48
2018-04-30T07:31:10.099Z,974.38
2018-04-30T07:32:10.329Z,974.32
2018-04-30T07:33:10.543Z,974.34
2018-04-30T07:34:10.623Z,974.47
2018-04-30T07:35:10.841Z,974.25
2018-04-30T07:36:10.956Z,974.24
2018-04-30T07:37:11.094Z,974.31
2018-04-30T07:38:11.223Z,974.20
2018-04-30T07:39:11.480Z,974.24
2018-04-30T07:40:11.576Z,974.32
2018-04-30T07:41:11.777Z,974.44
2018-04-30T07:42:11.913Z,974.78
2018-04-30T07:43:12.094Z,974.67
2018-04-30T07:44:12.253Z,974.70
2018-04-30T07:45:12.402Z,974.72
2018-04-30T07:46:12.676Z,974.82
2018-04-30T07:47:12.825Z,974.61
2018-04-30T07:48:12.903Z,974.70
2018-04-30T07:49:13.210Z,974.77
2018-04-30T07:50:13.333Z,974.73
2018-04-30T07:51:13.473Z,974.82
2018-04-30T07:52:13.642Z,974.80
2018-04-30T07:53:13.740Z,974.65
2018-04-30T07:54:14.015Z,974.60
2018-04-30T07:55:14.192Z,974.60
2018-04-30T07:56:14.343Z,974.71
2018-04-30T07:57:14.581Z,974.71
2018-04-30T07:58:14.676Z,974.73
2018-04-30T07:59:14.817Z,974.70
2018-04-30T08:00:14.944Z,974.83
2018-04-30T08:01:15.135Z,974.75
2018-04-30T08:02:15.271Z,974.74
2018-04-30T08:03:15.480Z,974.68
2018-04-30T08:04:15.655Z,974.68
2018-04-30T08:05:15.800Z,974.81
2018-04-30T08:06:16.060Z,974.80
2018-04-30T08:07:16.175Z,974.81
2018-04-30T08:08:16.272Z,974.95
2018-04-30T08:09:16.471Z,974.92
2018-04-30T08:10:16.618Z,974.98
2018-04-30T08:11:16.727Z,974.86
2018-04-30T08:12:16.957Z,974.92
2018-04-30T08:13:17.086Z,974.82
2018-04-30T08:14:17.287Z,974.91
2018-04-30T08:15:17.453Z,974.88
2018-04-30T08:16:17.618Z,974.98
2018-04-30T08:17:17.734Z,974.80
2018-04-30T08:18:17.961Z,974.75
2018-04-30T08:19:18.123Z,974.85
2018-04-30T08:20:18.259Z,974.73
2018-04-30T08:21:18.442Z,974.75
2018-04-30T08:22:18.560Z,974.62
2018-04-30T08:23:18.846Z,974.58
2018-04-30T08:24:18.956Z,974.51
2018-04-30T08:25:19.047Z,974.53
2018-04-30T08:26:19.228Z,974.58
2018-04-30T08:27:19.390Z,974.57
2018-04-30T08:28:19.585Z,974.53
2018-04-30T08:29:19.786Z,974.47
2018-04-30T08:30:19.924Z,974.54
2018-04-30T08:31:20.034Z,974.47
2018-04-30T08:32:20.215Z,974.42
2018-04-30T08:33:20.383Z,974.46
2018-04-30T08:34:20.526Z,974.64
2018-04-30T08:35:20.701Z,974.82
2018-04-30T08:36:20.892Z,975.07
2018-04-30T08:37:21.019Z,975.34
2018-04-30T08:38:21.316Z,975.24
2018-04-30T08:39:21.368Z,975.30
2018-04-30T08:40:21.654Z,975.35
2018-04-30T08:41:21.753Z,975.45
2018-04-30T08:42:21.898Z,975.51
2018-04-30T08:43:22.138Z,975.49
2018-04-30T08:44:22.258Z,975.55
2018-04-30T08:45:22.389Z,975.96
2018-04-30T08:46:22.537Z,975.78
2018-04-30T08:47:22.741Z,975.68
2018-04-30T08:48:22.899Z,975.77
2018-04-30T08:49:23.110Z,975.78
2018-04-30T08:50:23.239Z,975.76
2018-04-30T08:51:23.457Z,975.72
2018-04-30T08:52:23.569Z,975.66
2018-04-30T08:53:23.698Z,975.69
2018-04-30T08:54:23.897Z,975.66
2018-04-30T08:55:24.261Z,975.62
2018-04-30T08:56:24.242Z,975.62
2018-04-30T08:57:24.363Z,975.65
2018-04-30T08:58:25.010Z,975.58
2018-04-30T08:59:24.870Z,975.59
2018-04-30T09:00:25.010Z,975.74
2018-04-30T09:01:25.163Z,975.74
2018-04-30T09:02:25.297Z,975.76
2018-04-30T09:03:25.470Z,975.76
2018-04-30T09:04:25.647Z,975.72
2018-04-30T09:05:25.815Z,975.60
2018-04-30T09:06:26.001Z,975.49
2018-04-30T09:07:26.114Z,975.46
2018-04-30T09:08:26.304Z,975.33
2018-04-30T09:09:26.434Z,975.37
2018-04-30T09:10:26.621Z,975.27
2018-04-30T09:11:26.768Z,975.28
2018-04-30T09:12:26.953Z,975.24
2018-04-30T09:13:27.103Z,975.27
2018-04-30T09:14:27.264Z,975.32
2018-04-30T09:15:27.536Z,975.44
2018-04-30T09:16:27.618Z,975.34
2018-04-30T09:17:27.817Z,975.34
2018-04-30T09:18:27.967Z,975.37
2018-04-30T09:19:28.120Z,975.42
2018-04-30T09:20:28.231Z,975.37
2018-04-30T09:21:28.428Z,975.28
2018-04-30T09:22:28.655Z,975.25
2018-04-30T09:23:28.808Z,975.19
2018-04-30T09:24:28.871Z,975.17
2018-04-30T09:25:29.082Z,975.07
2018-04-30T09:26:29.342Z,974.99
2018-04-30T09:27:29.476Z,975.04
2018-04-30T09:28:29.632Z,975.13
2018-04-30T09:29:29.809Z,975.21
2018-04-30T09:30:29.993Z,975.26
2018-04-30T09:31:30.144Z,975.22
2018-04-30T09:32:30.305Z,975.32
2018-04-30T09:33:30.466Z,975.36
2018-04-30T09:34:30.682Z,975.33
2018-04-30T09:35:30.791Z,975.30
2018-04-30T09:36:30.924Z,975.29
2018-04-30T09:37:31.111Z,975.32
2018-04-30T09:38:31.282Z,975.30
2018-04-30T09:39:31.440Z,975.22
2018-04-30T09:40:31.647Z,975.25
2018-04-30T09:41:31.770Z,975.26
2018-04-30T09:42:32.015Z,975.37
2018-04-30T09:43:32.158Z,975.30
2018-04-30T09:44:32.278Z,975.51
2018-04-30T09:45:32.495Z,975.47
2018-04-30T09:46:32.592Z,975.63
2018-04-30T09:47:32.733Z,975.62
2018-04-30T09:48:32.940Z,975.52
2018-04-30T09:49:33.067Z,975.60
2018-04-30T09:50:34.157Z,975.49
2018-04-30T09:51:33.402Z,975.49
2018-04-30T09:52:33.560Z,975.54
2018-04-30T09:53:33.742Z,975.39
2018-04-30T09:54:33.935Z,975.29
2018-04-30T09:55:34.050Z,975.34
2018-04-30T09:56:34.260Z,975.29
2018-04-30T09:57:34.428Z,975.36
2018-04-30T09:58:34.614Z,975.41
2018-04-30T09:59:34.698Z,975.72
2018-04-30T10:00:34.834Z,975.40
2018-04-30T10:01:35.017Z,975.43
2018-04-30T10:02:35.150Z,975.44
2018-04-30T10:03:35.371Z,975.55
2018-04-30T10:04:35.482Z,975.58
2018-04-30T10:05:35.648Z,975.52
2018-04-30T10:06:35.832Z,975.54
2018-04-30T10:07:36.025Z,975.48
2018-04-30T10:08:36.162Z,975.66
2018-04-30T10:09:36.410Z,975.62
2018-04-30T10:10:36.483Z,975.68
2018-04-30T10:11:36.712Z,975.66
2018-04-30T10:12:36.909Z,975.76
2018-04-30T10:13:37.099Z,975.92
2018-04-30T10:14:37.238Z,975.88
2018-04-30T10:15:37.396Z,975.88
2018-04-30T10:16:37.608Z,975.58
2018-04-30T10:17:37.752Z,975.83
2018-04-30T10:18:37.949Z,975.63
2018-04-30T10:19:38.134Z,975.74
2018-04-30T10:20:38.276Z,975.76
2018-04-30T10:21:38.450Z,975.68
2018-04-30T10:22:38.628Z,975.87
2018-04-30T10:23:38.864Z,975.75
2018-04-30T10:24:39.002Z,975.61
2018-04-30T10:25:39.189Z,975.62
2018-04-30T10:26:39.372Z,975.62
2018-04-30T10:27:39.514Z,975.71
2018-04-30T10:28:39.792Z,975.77
2018-04-30T10:29:39.797Z,975.76
2018-04-30T10:30:39.922Z,975.55
2018-04-30T10:31:40.220Z,975.52
2018-04-30T10:32:40.325Z,975.45
2018-04-30T10:33:40.443Z,975.50
2018-04-30T10:34:40.674Z,975.61
2018-04-30T10:35:40.975Z,975.57
2018-04-30T10:36:41.019Z,975.74
2018-04-30T10:37:41.196Z,975.69
2018-04-30T10:38:41.343Z,975.80
2018-04-30T10:39:41.496Z,975.66
2018-04-30T10:40:41.633Z,975.72
2018-04-30T10:41:41.796Z,975.73
2018-04-30T10:42:41.999Z,975.63
2018-04-30T10:43:42.115Z,975.67
2018-04-30T10:44:42.312Z,975.93
2018-04-30T10:45:42.465Z,975.90
2018-04-30T10:46:42.628Z,976.02
2018-04-30T10:47:42.764Z,976.83
2018-04-30T10:48:43.017Z,976.64
2018-04-30T10:49:43.170Z,976.61
2018-04-30T10:50:43.294Z,976.56
2018-04-30T10:51:43.565Z,976.54
2018-04-30T10:52:43.632Z,976.53
2018-04-30T10:53:43.805Z,976.45
2018-04-30T10:54:43.976Z,976.50
2018-04-30T10:55:44.094Z,975.78
2018-04-30T10:56:44.358Z,975.72
2018-04-30T10:57:44.543Z,975.77
2018-04-30T10:58:44.658Z,975.82
2018-04-30T10:59:44.844Z,975.74
2018-04-30T11:00:45.075Z,975.69
2018-04-30T11:01:45.241Z,975.70
2018-04-30T11:02:45.437Z,975.79
2018-04-30T11:03:45.545Z,975.81
2018-04-30T11:04:45.664Z,975.77
2018-04-30T11:05:45.932Z,975.77
2018-04-30T11:06:45.991Z,975.90
2018-04-30T11:07:46.253Z,975.82
2018-04-30T11:08:46.472Z,975.79
2018-04-30T11:09:46.566Z,975.88
2018-04-30T11:10:46.727Z,975.83
2018-04-30T11:11:46.863Z,976.01
2018-04-30T11:12:47.083Z,975.82
2018-04-30T11:13:47.180Z,975.73
2018-04-30T11:14:47.371Z,975.82
2018-04-30T11:15:47.468Z,975.84
2018-04-30T11:16:47.759Z,975.98
2018-04-30T11:17:47.899Z,976.13
2018-04-30T11:18:48.035Z,975.95
2018-04-30T11:19:48.219Z,975.92
2018-04-30T11:20:48.419Z,975.91
2018-04-30T11:21:48.452Z,975.75
2018-04-30T11:22:48.662Z,975.74
2018-04-30T11:23:48.855Z,975.99
2018-04-30T11:24:49.047Z,975.78
2018-04-30T11:25:49.198Z,976.02
2018-04-30T11:26:49.435Z,975.86
2018-04-30T11:27:49.552Z,975.83
2018-04-30T11:28:49.717Z,975.84
2018-04-30T11:29:49.863Z,975.83
2018-04-30T11:30:50.091Z,975.89
2018-04-30T11:31:50.221Z,975.86
2018-04-30T11:32:50.355Z,975.80
2018-04-30T11:33:50.541Z,976.02
2018-04-30T11:34:50.692Z,975.75
2018-04-30T11:35:50.780Z,975.84
2018-04-30T11:36:50.971Z,976.11
2018-04-30T11:37:51.249Z,975.71
2018-04-30T11:38:51.289Z,975.76
2018-04-30T11:39:51.517Z,975.84
2018-04-30T11:40:51.840Z,975.85
2018-04-30T11:41:51.952Z,975.68
2018-04-30T11:42:52.225Z,975.72
2018-04-30T11:43:52.293Z,975.72
2018-04-30T11:44:52.379Z,975.66
2018-04-30T11:45:52.575Z,975.74
2018-04-30T11:46:52.770Z,975.75
2018-04-30T11:47:52.922Z,975.89
2018-04-30T11:48:53.090Z,975.74
2018-04-30T11:49:53.280Z,975.88
2018-04-30T11:50:53.454Z,976.11
2018-04-30T11:51:53.637Z,975.93
2018-04-30T11:52:53.780Z,976.04
2018-04-30T11:53:53.873Z,976.09
2018-04-30T11:54:54.086Z,976.20
2018-04-30T11:55:54.251Z,976.26
2018-04-30T11:56:54.330Z,976.25
2018-04-30T11:57:54.598Z,976.18
2018-04-30T11:58:54.756Z,976.27
2018-04-30T11:59:54.963Z,976.18
2018-04-30T12:00:55.053Z,976.03
2018-04-30T12:01:55.281Z,976.11
2018-04-30T12:02:55.465Z,976.13
2018-04-30T12:03:55.570Z,976.11
2018-04-30T12:04:55.793Z,976.74
2018-04-30T12:05:55.911Z,976.18
2018-04-30T12:06:56.178Z,976.41
2018-04-30T12:07:56.261Z,976.10
2018-04-30T12:08:56.413Z,976.20
2018-04-30T12:09:56.635Z,976.07
2018-04-30T12:10:56.745Z,976.10
2018-04-30T12:11:56.946Z,976.06
2018-04-30T12:12:57.037Z,976.19
2018-04-30T12:13:57.282Z,976.90
2018-04-30T12:14:57.405Z,976.52
2018-04-30T12:15:57.605Z,976.63
2018-04-30T12:16:57.803Z,976.47
2018-04-30T12:17:57.942Z,976.20
2018-04-30T12:18:58.120Z,976.17
2018-04-30T12:19:58.371Z,976.84
2018-04-30T12:20:58.422Z,976.37
2018-04-30T12:21:58.582Z,976.44
2018-04-30T12:22:58.714Z,976.20
2018-04-30T12:23:58.966Z,976.35
2018-04-30T12:24:59.091Z,976.85
2018-04-30T12:25:59.252Z,976.78
2018-04-30T12:26:59.465Z,976.16
2018-04-30T12:27:59.515Z,976.26
2018-04-30T12:28:59.706Z,976.13
2018-04-30T12:29:59.877Z,976.08
2018-04-30T12:31:00.206Z,976.23
2018-04-30T12:32:00.285Z,976.39
2018-04-30T12:33:00.402Z,976.23
2018-04-30T12:34:00.559Z,976.24
2018-04-30T12:35:00.817Z,976.24
2018-04-30T12:36:01.073Z,976.35
2018-04-30T12:37:01.096Z,976.32
2018-04-30T12:38:01.329Z,976.29
2018-04-30T12:39:01.493Z,976.40
2018-04-30T12:40:01.662Z,976.25
2018-04-30T12:41:01.833Z,976.31
2018-04-30T12:42:02.001Z,976.44
2018-04-30T12:43:02.196Z,976.47
2018-04-30T12:44:02.430Z,976.33
2018-04-30T12:45:02.476Z,976.40
2018-04-30T12:46:02.608Z,976.33
2018-04-30T12:47:02.840Z,976.31
2018-04-30T12:48:02.983Z,976.40
2018-04-30T12:49:03.166Z,976.40
2018-04-30T12:50:03.287Z,976.42
2018-04-30T12:51:03.452Z,976.36
2018-04-30T12:52:03.674Z,976.23
2018-04-30T12:53:03.992Z,976.24
2018-04-30T12:54:03.993Z,976.26
2018-04-30T12:55:04.151Z,976.30
2018-04-30T12:56:04.309Z,976.35
2018-04-30T12:57:04.485Z,976.30
2018-04-30T12:58:04.617Z,976.29
2018-04-30T12:59:04.943Z,976.31
2018-04-30T13:00:04.980Z,976.26
2018-04-30T13:01:05.260Z,976.51
2018-04-30T13:02:05.520Z,976.29
2018-04-30T13:03:05.617Z,976.32
2018-04-30T13:04:05.834Z,976.36
2018-04-30T13:05:05.909Z,976.41
2018-04-30T16:52:37.042Z,976.66
2018-04-30T16:53:39.441Z,976.66
2018-04-30T16:54:37.803Z,976.71
2018-04-30T16:55:37.436Z,976.82
2018-04-30T16:56:37.833Z,976.78
2018-04-30T16:57:37.904Z,976.74
2018-04-30T16:58:37.946Z,976.70
2018-04-30T16:59:38.522Z,976.73
2018-04-30T17:00:38.459Z,976.69
2018-04-30T17:01:38.850Z,976.62
2018-04-30T17:02:40.377Z,976.75
2018-04-30T17:04:43.974Z,976.89
2018-04-30T17:05:39.891Z,976.88
2018-04-30T17:07:42.297Z,976.83
2018-04-30T17:08:38.107Z,976.79
2018-04-30T17:09:37.609Z,976.73
2018-04-30T17:14:58.487Z,976.73
2018-04-30T17:19:29.853Z,976.62
2018-04-30T17:24:21.902Z,976.62
2018-04-30T17:40:39.408Z,976.61
2018-04-30T17:43:59.700Z,976.70
2018-04-30T17:44:59.476Z,976.80
2018-04-30T17:48:48.162Z,976.68
2018-04-30T17:49:47.714Z,976.62
2018-04-30T17:50:47.052Z,976.63
2018-04-30T17:53:54.019Z,976.62
2018-04-30T17:54:54.158Z,976.64
2018-04-30T17:55:55.529Z,976.74
2018-04-30T17:56:55.438Z,976.72
2018-04-30T17:57:57.842Z,976.61
2018-04-30T17:58:56.132Z,976.57
2018-04-30T17:59:56.503Z,976.61
2018-04-30T18:01:55.834Z,976.56
2018-04-30T18:17:55.171Z,976.71
2018-04-30T18:24:20.362Z,976.86
2018-04-30T18:29:38.485Z,976.77
2018-04-30T18:30:46.520Z,976.69
2018-04-30T18:31:39.603Z,976.66
2018-04-30T18:32:49.326Z,976.74
2018-04-30T18:33:39.245Z,976.67
2018-04-30T18:34:39.846Z,976.78
2018-04-30T18:37:34.129Z,976.66
2018-04-30T18:48:35.803Z,976.57
2018-04-30T18:49:36.271Z,976.61
2018-04-30T18:50:33.657Z,976.61
2018-04-30T18:51:33.214Z,976.67
2018-04-30T18:52:33.348Z,976.65
2018-04-30T18:53:33.499Z,976.75
2018-04-30T18:54:33.713Z,976.69
2018-04-30T18:55:33.726Z,976.74
2018-04-30T18:56:33.889Z,976.78
2018-04-30T18:57:34.099Z,976.82
2018-04-30T18:58:35.640Z,976.91
2018-04-30T18:59:34.410Z,977.04
2018-04-30T19:00:34.644Z,976.91
2018-04-30T19:01:35.534Z,977.00
2018-04-30T19:02:34.998Z,976.94
2018-04-30T19:03:35.175Z,976.96
2018-04-30T19:04:35.404Z,977.05
2018-04-30T19:05:35.654Z,977.02
2018-04-30T19:06:35.896Z,976.99
2018-04-30T19:07:36.042Z,977.00
2018-04-30T19:08:36.075Z,977.05
2018-04-30T19:09:36.274Z,977.08
2018-04-30T19:10:37.762Z,977.18
2018-04-30T19:11:36.659Z,977.02
2018-04-30T19:12:36.847Z,977.04
2018-04-30T19:13:37.118Z,977.08
2018-04-30T19:14:37.173Z,977.09
2018-04-30T19:15:37.408Z,977.06
2018-04-30T19:16:38.135Z,977.03
2018-04-30T19:17:37.663Z,977.05
2018-04-30T19:18:37.769Z,977.10
2018-04-30T19:19:39.047Z,977.04
2018-04-30T19:20:38.204Z,977.15
2018-04-30T19:21:39.139Z,977.12
2018-04-30T19:22:38.528Z,977.03
2018-04-30T19:23:38.728Z,977.06
2018-04-30T19:24:38.849Z,977.10
2018-04-30T19:25:39.060Z,977.07
2018-04-30T19:26:39.321Z,977.18
2018-04-30T19:27:39.500Z,977.08
2018-04-30T19:28:39.593Z,977.11
2018-04-30T19:29:50.709Z,977.18
2018-04-30T19:30:40.134Z,977.15
2018-04-30T19:31:40.557Z,977.11
2018-04-30T19:32:40.423Z,977.15
2018-04-30T19:33:40.396Z,977.21
2018-04-30T19:34:40.911Z,977.20
2018-04-30T19:35:42.489Z,977.22
2018-04-30T19:40:08.470Z,977.19
2018-04-30T19:42:49.609Z,977.15
2018-04-30T19:43:50.158Z,977.09
2018-04-30T19:44:51.409Z,977.08
2018-04-30T19:45:50.598Z,977.06
2018-04-30T19:46:51.151Z,977.09
2018-04-30T19:47:50.446Z,977.12
2018-04-30T19:48:51.123Z,977.08
2018-04-30T19:49:50.694Z,977.31
2018-04-30T19:50:49.194Z,977.26
2018-04-30T19:51:49.564Z,977.27
2018-04-30T19:52:49.273Z,977.26
2018-04-30T19:53:49.538Z,977.20
2018-04-30T19:54:50.253Z,977.23
2018-04-30T19:55:50.055Z,977.27
2018-04-30T19:56:50.325Z,977.29
2018-04-30T19:57:50.541Z,977.32
2018-04-30T19:58:50.441Z,977.20
2018-04-30T19:59:50.975Z,977.24
2018-04-30T20:00:51.223Z,977.26
2018-04-30T20:01:51.148Z,977.31
2018-04-30T20:02:51.347Z,977.33
2018-04-30T20:03:51.394Z,977.33
2018-04-30T20:04:53.359Z,977.24
2018-04-30T20:05:51.549Z,977.33
2018-04-30T20:06:51.633Z,977.21
2018-04-30T20:07:52.022Z,977.27
2018-04-30T20:08:52.153Z,977.20
2018-04-30T20:09:52.691Z,977.32
2018-04-30T20:10:52.598Z,977.20
2018-04-30T20:11:52.734Z,977.23
2018-04-30T20:12:52.786Z,977.27
2018-04-30T20:13:52.996Z,977.29
2018-04-30T20:14:53.293Z,977.32
2018-04-30T20:15:53.311Z,977.27
2018-04-30T20:16:53.446Z,977.31
2018-04-30T20:17:53.722Z,977.33
2018-04-30T20:18:53.782Z,977.33
2018-04-30T20:19:53.953Z,977.34
2018-04-30T20:20:54.130Z,977.37
2018-04-30T20:21:54.289Z,977.36
2018-04-30T20:22:54.450Z,977.39
2018-04-30T20:23:54.578Z,977.38
2018-04-30T20:24:54.813Z,977.29
2018-04-30T20:25:54.997Z,977.36
2018-04-30T20:26:55.205Z,977.30
2018-04-30T20:27:55.327Z,977.31
2018-04-30T20:28:55.541Z,977.28
2018-04-30T20:29:55.689Z,977.30
2018-04-30T20:30:55.870Z,977.40
2018-04-30T20:31:56.029Z,977.30
2018-04-30T20:32:56.236Z,977.29
2018-04-30T20:33:56.308Z,977.27
2018-04-30T20:34:56.492Z,977.32
2018-04-30T20:35:56.667Z,977.28
2018-04-30T20:36:56.795Z,977.30
2018-04-30T20:37:57.054Z,977.31
2018-04-30T20:38:57.371Z,977.31
2018-04-30T20:39:57.402Z,977.40
2018-04-30T20:40:57.605Z,977.39
2018-04-30T20:41:57.719Z,977.36
2018-04-30T20:42:57.889Z,977.36
2018-04-30T20:43:58.115Z,977.33
2018-04-30T20:44:58.226Z,977.41
2018-04-30T20:45:58.585Z,977.29
2018-04-30T20:46:58.580Z,977.37
2018-04-30T20:47:58.849Z,977.32
2018-04-30T20:48:58.905Z,977.37
2018-04-30T20:49:59.021Z,977.30
2018-04-30T20:50:59.280Z,977.35
2018-04-30T20:51:59.503Z,977.31
2018-04-30T20:52:59.662Z,977.38
2018-04-30T20:53:59.962Z,977.43
2018-04-30T20:55:00.181Z,977.42
2018-04-30T20:56:00.168Z,977.32
2018-04-30T20:57:00.352Z,977.39
2018-04-30T20:58:00.464Z,977.42
2018-04-30T20:59:00.678Z,977.38
2018-04-30T21:00:01.184Z,977.45
2018-04-30T21:01:00.926Z,977.45
2018-04-30T21:02:01.322Z,977.43
2018-04-30T21:03:01.362Z,977.41
2018-04-30T21:04:01.380Z,977.35
2018-04-30T21:05:01.526Z,977.35
2018-04-30T21:06:01.710Z,977.40
2018-04-30T21:07:01.912Z,977.35
2018-04-30T21:08:02.156Z,977.31
2018-04-30T21:09:02.226Z,977.26
2018-04-30T21:10:02.336Z,977.27
2018-04-30T21:11:02.580Z,977.27
2018-04-30T21:12:02.766Z,977.30
2018-04-30T21:13:02.928Z,977.33
2018-04-30T21:14:03.061Z,977.37
2018-04-30T21:15:03.250Z,977.36
2018-04-30T21:16:03.392Z,977.55
2018-04-30T21:17:03.576Z,977.56
2018-04-30T21:18:04.083Z,977.54
2018-04-30T21:19:04.140Z,977.60
2018-04-30T21:20:04.120Z,977.41
2018-04-30T21:21:04.495Z,977.50
2018-04-30T21:22:04.467Z,977.36
2018-04-30T21:23:04.657Z,977.48
2018-04-30T21:24:04.888Z,977.53
2018-04-30T21:25:05.035Z,977.64
2018-04-30T21:26:05.725Z,977.69
2018-04-30T21:27:05.692Z,977.63
2018-04-30T21:28:05.418Z,977.47
2018-04-30T21:29:06.012Z,977.44
2018-04-30T21:30:05.959Z,977.49
2018-04-30T21:32:18.424Z,977.49
2018-04-30T21:33:08.997Z,977.49
2018-04-30T21:34:08.752Z,977.45
2018-04-30T21:35:09.041Z,977.45
2018-04-30T21:36:09.565Z,977.56
2018-04-30T21:38:09.241Z,977.50
2018-04-30T21:39:09.526Z,977.62
2018-04-30T21:40:09.653Z,977.61
2018-04-30T21:41:08.138Z,977.59
2018-04-30T21:42:07.959Z,977.56
2018-04-30T21:43:07.959Z,977.56
2018-04-30T21:44:08.072Z,977.57
2018-04-30T21:45:08.347Z,977.83
2018-04-30T21:46:08.469Z,977.65
2018-04-30T21:47:08.632Z,977.84
2018-04-30T21:48:08.827Z,977.86
2018-04-30T21:49:08.994Z,977.81
